sensor_id;sensor_type;location;lat;lon;timestamp;pressure;altitude;pressure_sealevel;temperature;humidity
23166;BME280;11751;42.700;24.170;2023-04-15T00:02:16;93191.06;;;5.50;nan
23166;BME280;11751;42.700;24.170;2023-04-15T00:04:43;93183.72;;;5.60;nan
23166;BME280;11751;42.700;24.170;2023-04-15T00:07:09;93190.75;;;5.61;nan
23166;BME280;11751;42.700;24.170;2023-04-15T00:09:35;93187.47;;;5.70;nan
23166;BME280;11751;42.700;24.170;2023-04-15T00:12:00;93188.22;;;5.71;nan
23166;BME280;11751;42.700;24.170;2023-04-15T00:14:26;93183.94;;;5.70;nan
23166;BME280;11751;42.700;24.170;2023-04-15T00:16:52;93186.13;;;5.64;nan
23166;BME280;11751;42.700;24.170;2023-04-15T00:19:20;93187.28;;;5.40;nan
23166;BME280;11751;42.700;24.170;2023-04-15T00:21:46;93187.78;;;5.31;nan
23166;BME280;11751;42.700;24.170;2023-04-15T00:24:11;93191.66;;;5.28;nan
23166;BME280;11751;42.700;24.170;2023-04-15T00:26:38;93191.25;;;5.24;nan
23166;BME280;11751;42.700;24.170;2023-04-15T00:29:03;93195.63;;;5.12;nan
23166;BME280;11751;42.700;24.170;2023-04-15T00:31:30;93193.78;;;5.15;nan
23166;BME280;11751;42.700;24.170;2023-04-15T00:33:56;93194.72;;;5.17;nan
23166;BME280;11751;42.700;24.170;2023-04-15T00:36:21;93194.13;;;5.11;nan
23166;BME280;11751;42.700;24.170;2023-04-15T00:38:47;93195.19;;;5.08;nan
23166;BME280;11751;42.700;24.170;2023-04-15T00:41:13;93200.81;;;5.16;nan
23166;BME280;11751;42.700;24.170;2023-04-15T00:43:38;93198.97;;;5.18;nan
23166;BME280;11751;42.700;24.170;2023-04-15T00:46:04;93200.47;;;5.19;nan
23166;BME280;11751;42.700;24.170;2023-04-15T00:48:30;93203.38;;;5.14;nan
23166;BME280;11751;42.700;24.170;2023-04-15T00:50:56;93197.84;;;5.14;nan
23166;BME280;11751;42.700;24.170;2023-04-15T00:53:22;93195.13;;;5.01;nan
23166;BME280;11751;42.700;24.170;2023-04-15T00:55:48;93201.66;;;5.04;nan
23166;BME280;11751;42.700;24.170;2023-04-15T00:58:13;93208.88;;;5.06;nan
23166;BME280;11751;42.700;24.170;2023-04-15T01:00:39;93200.75;;;5.08;nan
23166;BME280;11751;42.700;24.170;2023-04-15T01:03:06;93196.69;;;5.09;nan
23166;BME280;11751;42.700;24.170;2023-04-15T01:05:32;93199.69;;;5.11;nan
23166;BME280;11751;42.700;24.170;2023-04-15T01:07:57;93190.72;;;5.05;nan
23166;BME280;11751;42.700;24.170;2023-04-15T01:10:23;93196.97;;;4.99;nan
23166;BME280;11751;42.700;24.170;2023-04-15T01:12:49;93199.16;;;4.93;nan
23166;BME280;11751;42.700;24.170;2023-04-15T01:15:14;93203.06;;;4.77;nan
23166;BME280;11751;42.700;24.170;2023-04-15T01:17:40;93213.41;;;4.76;nan
23166;BME280;11751;42.700;24.170;2023-04-15T01:20:06;93219.16;;;4.58;nan
23166;BME280;11751;42.700;24.170;2023-04-15T01:22:35;93207.97;;;4.30;nan
23166;BME280;11751;42.700;24.170;2023-04-15T01:25:09;93212.66;;;4.35;nan
23166;BME280;11751;42.700;24.170;2023-04-15T01:27:38;93206.75;;;4.38;nan
23166;BME280;11751;42.700;24.170;2023-04-15T01:30:05;93216.69;;;4.34;nan
23166;BME280;11751;42.700;24.170;2023-04-15T01:32:30;93221.59;;;4.28;nan
23166;BME280;11751;42.700;24.170;2023-04-15T01:34:56;93223.75;;;4.22;nan
23166;BME280;11751;42.700;24.170;2023-04-15T01:37:21;93228.16;;;4.18;nan
23166;BME280;11751;42.700;24.170;2023-04-15T01:39:46;93236.00;;;4.26;nan
23166;BME280;11751;42.700;24.170;2023-04-15T01:42:12;93231.63;;;4.31;nan
23166;BME280;11751;42.700;24.170;2023-04-15T01:44:37;93243.56;;;4.26;nan
23166;BME280;11751;42.700;24.170;2023-04-15T01:47:03;93245.03;;;4.27;nan
23166;BME280;11751;42.700;24.170;2023-04-15T01:49:29;93251.34;;;4.27;nan
23166;BME280;11751;42.700;24.170;2023-04-15T01:51:55;93267.63;;;4.31;nan
23166;BME280;11751;42.700;24.170;2023-04-15T01:54:20;93262.94;;;4.39;nan
23166;BME280;11751;42.700;24.170;2023-04-15T01:56:46;93253.00;;;4.43;nan
23166;BME280;11751;42.700;24.170;2023-04-15T01:59:11;93256.41;;;4.49;nan
23166;BME280;11751;42.700;24.170;2023-04-15T02:01:37;93246.72;;;4.43;nan
23166;BME280;11751;42.700;24.170;2023-04-15T02:04:03;93265.91;;;4.41;nan
23166;BME280;11751;42.700;24.170;2023-04-15T02:06:28;93272.50;;;4.38;nan
23166;BME280;11751;42.700;24.170;2023-04-15T02:08:53;93272.75;;;4.27;nan
23166;BME280;11751;42.700;24.170;2023-04-15T02:11:19;93269.38;;;4.21;nan
23166;BME280;11751;42.700;24.170;2023-04-15T02:13:44;93264.50;;;4.14;nan
23166;BME280;11751;42.700;24.170;2023-04-15T02:16:17;93267.78;;;4.13;nan
23166;BME280;11751;42.700;24.170;2023-04-15T02:18:44;93257.34;;;4.06;nan
23166;BME280;11751;42.700;24.170;2023-04-15T02:21:09;93246.41;;;3.87;nan
23166;BME280;11751;42.700;24.170;2023-04-15T02:23:35;93256.19;;;4.01;nan
23166;BME280;11751;42.700;24.170;2023-04-15T02:26:00;93249.25;;;4.08;nan
23166;BME280;11751;42.700;24.170;2023-04-15T02:28:26;93250.09;;;4.03;nan
23166;BME280;11751;42.700;24.170;2023-04-15T02:30:51;93250.97;;;4.11;nan
23166;BME280;11751;42.700;24.170;2023-04-15T02:33:18;93245.94;;;4.09;nan
23166;BME280;11751;42.700;24.170;2023-04-15T02:35:44;93245.13;;;4.01;nan
23166;BME280;11751;42.700;24.170;2023-04-15T02:38:10;93246.50;;;4.08;nan
23166;BME280;11751;42.700;24.170;2023-04-15T02:40:36;93255.97;;;4.12;nan
23166;BME280;11751;42.700;24.170;2023-04-15T02:43:01;93272.13;;;4.21;nan
23166;BME280;11751;42.700;24.170;2023-04-15T02:45:27;93267.69;;;4.05;nan
23166;BME280;11751;42.700;24.170;2023-04-15T02:47:53;93262.16;;;4.05;nan
23166;BME280;11751;42.700;24.170;2023-04-15T02:50:18;93263.09;;;4.21;nan
23166;BME280;11751;42.700;24.170;2023-04-15T02:52:44;93259.13;;;4.29;nan
23166;BME280;11751;42.700;24.170;2023-04-15T02:55:10;93254.44;;;4.24;nan
23166;BME280;11751;42.700;24.170;2023-04-15T02:57:35;93261.16;;;4.28;nan
23166;BME280;11751;42.700;24.170;2023-04-15T03:00:05;93256.06;;;4.20;nan
23166;BME280;11751;42.700;24.170;2023-04-15T03:02:37;93249.03;;;4.19;nan
23166;BME280;11751;42.700;24.170;2023-04-15T03:05:03;93250.41;;;4.12;nan
23166;BME280;11751;42.700;24.170;2023-04-15T03:07:30;93262.56;;;4.09;nan
23166;BME280;11751;42.700;24.170;2023-04-15T03:09:56;93260.00;;;4.24;nan
23166;BME280;11751;42.700;24.170;2023-04-15T03:12:21;93249.34;;;4.15;nan
23166;BME280;11751;42.700;24.170;2023-04-15T03:14:47;93248.44;;;4.00;nan
23166;BME280;11751;42.700;24.170;2023-04-15T03:17:12;93244.06;;;4.04;nan
23166;BME280;11751;42.700;24.170;2023-04-15T03:19:38;93249.38;;;4.02;nan
23166;BME280;11751;42.700;24.170;2023-04-15T03:22:03;93249.06;;;3.93;nan
23166;BME280;11751;42.700;24.170;2023-04-15T03:24:28;93241.91;;;3.97;nan
23166;BME280;11751;42.700;24.170;2023-04-15T03:26:55;93247.44;;;4.10;nan
23166;BME280;11751;42.700;24.170;2023-04-15T03:29:22;93247.88;;;4.14;nan
23166;BME280;11751;42.700;24.170;2023-04-15T03:31:47;93245.50;;;4.18;nan
23166;BME280;11751;42.700;24.170;2023-04-15T03:34:13;93240.59;;;4.24;nan
23166;BME280;11751;42.700;24.170;2023-04-15T03:36:38;93254.72;;;4.33;nan
23166;BME280;11751;42.700;24.170;2023-04-15T03:39:03;93264.00;;;4.36;nan
23166;BME280;11751;42.700;24.170;2023-04-15T03:41:29;93254.81;;;4.41;nan
23166;BME280;11751;42.700;24.170;2023-04-15T03:43:55;93267.81;;;4.46;nan
23166;BME280;11751;42.700;24.170;2023-04-15T03:46:21;93266.53;;;4.47;nan
23166;BME280;11751;42.700;24.170;2023-04-15T03:48:46;93281.03;;;4.40;nan
23166;BME280;11751;42.700;24.170;2023-04-15T03:51:12;93287.41;;;4.48;nan
23166;BME280;11751;42.700;24.170;2023-04-15T03:53:37;93294.69;;;4.38;nan
23166;BME280;11751;42.700;24.170;2023-04-15T03:56:03;93296.97;;;4.26;nan
23166;BME280;11751;42.700;24.170;2023-04-15T03:58:28;93290.88;;;4.28;nan
23166;BME280;11751;42.700;24.170;2023-04-15T04:00:54;93295.34;;;4.31;nan
23166;BME280;11751;42.700;24.170;2023-04-15T04:03:19;93296.41;;;4.28;nan
23166;BME280;11751;42.700;24.170;2023-04-15T04:05:45;93285.16;;;4.13;nan
23166;BME280;11751;42.700;24.170;2023-04-15T04:08:11;93279.19;;;4.09;nan
23166;BME280;11751;42.700;24.170;2023-04-15T04:10:38;93282.72;;;3.97;nan
23166;BME280;11751;42.700;24.170;2023-04-15T04:13:04;93285.47;;;4.10;nan
23166;BME280;11751;42.700;24.170;2023-04-15T04:15:29;93284.50;;;4.20;nan
23166;BME280;11751;42.700;24.170;2023-04-15T04:17:55;93294.63;;;4.30;nan
23166;BME280;11751;42.700;24.170;2023-04-15T04:20:20;93299.81;;;4.34;nan
23166;BME280;11751;42.700;24.170;2023-04-15T04:22:46;93316.63;;;4.49;nan
23166;BME280;11751;42.700;24.170;2023-04-15T04:25:11;93312.59;;;4.37;nan
23166;BME280;11751;42.700;24.170;2023-04-15T04:27:37;93319.34;;;4.28;nan
23166;BME280;11751;42.700;24.170;2023-04-15T04:30:03;93325.81;;;4.44;nan
23166;BME280;11751;42.700;24.170;2023-04-15T04:32:29;93327.34;;;4.65;nan
23166;BME280;11751;42.700;24.170;2023-04-15T04:34:54;93334.66;;;4.76;nan
23166;BME280;11751;42.700;24.170;2023-04-15T04:37:20;93324.81;;;4.88;nan
23166;BME280;11751;42.700;24.170;2023-04-15T04:39:47;93317.19;;;5.01;nan
23166;BME280;11751;42.700;24.170;2023-04-15T04:42:12;93324.22;;;5.02;nan
23166;BME280;11751;42.700;24.170;2023-04-15T04:44:38;93329.88;;;5.09;nan
23166;BME280;11751;42.700;24.170;2023-04-15T04:47:03;93323.63;;;5.16;nan
23166;BME280;11751;42.700;24.170;2023-04-15T04:49:30;93331.75;;;5.55;nan
23166;BME280;11751;42.700;24.170;2023-04-15T04:51:56;93337.19;;;5.81;nan
23166;BME280;11751;42.700;24.170;2023-04-15T04:54:21;93336.91;;;5.92;nan
23166;BME280;11751;42.700;24.170;2023-04-15T04:56:47;93342.47;;;6.63;nan
23166;BME280;11751;42.700;24.170;2023-04-15T04:59:13;93345.31;;;7.35;nan
23166;BME280;11751;42.700;24.170;2023-04-15T05:01:38;93353.88;;;8.04;nan
23166;BME280;11751;42.700;24.170;2023-04-15T05:04:04;93352.53;;;8.65;nan
23166;BME280;11751;42.700;24.170;2023-04-15T05:06:30;93363.34;;;9.15;nan
23166;BME280;11751;42.700;24.170;2023-04-15T05:08:55;93364.09;;;9.47;nan
23166;BME280;11751;42.700;24.170;2023-04-15T05:11:21;93366.81;;;9.87;nan
23166;BME280;11751;42.700;24.170;2023-04-15T05:13:46;93364.81;;;9.80;nan
23166;BME280;11751;42.700;24.170;2023-04-15T05:16:11;93359.03;;;9.53;nan
23166;BME280;11751;42.700;24.170;2023-04-15T05:18:37;93344.31;;;9.21;nan
23166;BME280;11751;42.700;24.170;2023-04-15T05:21:02;93355.59;;;8.91;nan
23166;BME280;11751;42.700;24.170;2023-04-15T05:23:28;93357.19;;;8.62;nan
23166;BME280;11751;42.700;24.170;2023-04-15T05:25:53;93354.63;;;8.42;nan
23166;BME280;11751;42.700;24.170;2023-04-15T05:28:19;93359.84;;;8.46;nan
23166;BME280;11751;42.700;24.170;2023-04-15T05:30:44;93359.19;;;8.77;nan
23166;BME280;11751;42.700;24.170;2023-04-15T05:33:10;93357.03;;;9.07;nan
23166;BME280;11751;42.700;24.170;2023-04-15T05:35:36;93364.78;;;9.16;nan
23166;BME280;11751;42.700;24.170;2023-04-15T05:38:01;93366.03;;;9.30;nan
23166;BME280;11751;42.700;24.170;2023-04-15T05:40:27;93370.84;;;9.69;nan
23166;BME280;11751;42.700;24.170;2023-04-15T05:42:52;93362.06;;;9.97;nan
23166;BME280;11751;42.700;24.170;2023-04-15T05:45:18;93379.09;;;10.16;nan
23166;BME280;11751;42.700;24.170;2023-04-15T05:47:43;93378.59;;;10.34;nan
23166;BME280;11751;42.700;24.170;2023-04-15T05:50:09;93383.31;;;10.48;nan
23166;BME280;11751;42.700;24.170;2023-04-15T05:52:34;93374.78;;;10.80;nan
23166;BME280;11751;42.700;24.170;2023-04-15T05:55:00;93379.63;;;10.97;nan
23166;BME280;11751;42.700;24.170;2023-04-15T05:57:25;93385.31;;;11.23;nan
23166;BME280;11751;42.700;24.170;2023-04-15T05:59:51;93392.25;;;11.05;nan
23166;BME280;11751;42.700;24.170;2023-04-15T06:02:17;93386.66;;;11.05;nan
23166;BME280;11751;42.700;24.170;2023-04-15T06:04:42;93383.25;;;11.06;nan
23166;BME280;11751;42.700;24.170;2023-04-15T06:07:08;93385.97;;;11.14;nan
23166;BME280;11751;42.700;24.170;2023-04-15T06:09:33;93392.50;;;11.00;nan
23166;BME280;11751;42.700;24.170;2023-04-15T06:11:59;93387.22;;;11.20;nan
23166;BME280;11751;42.700;24.170;2023-04-15T06:14:26;93394.03;;;11.44;nan
23166;BME280;11751;42.700;24.170;2023-04-15T06:16:51;93399.97;;;11.31;nan
23166;BME280;11751;42.700;24.170;2023-04-15T06:19:16;93387.88;;;11.45;nan
23166;BME280;11751;42.700;24.170;2023-04-15T06:21:43;93399.78;;;11.63;nan
23166;BME280;11751;42.700;24.170;2023-04-15T06:24:09;93397.94;;;11.75;nan
23166;BME280;11751;42.700;24.170;2023-04-15T06:26:34;93394.88;;;12.06;nan
23166;BME280;11751;42.700;24.170;2023-04-15T06:29:00;93400.16;;;12.02;nan
23166;BME280;11751;42.700;24.170;2023-04-15T06:31:25;93403.84;;;11.95;nan
23166;BME280;11751;42.700;24.170;2023-04-15T06:33:51;93398.84;;;12.39;nan
23166;BME280;11751;42.700;24.170;2023-04-15T06:36:17;93408.59;;;12.74;nan
23166;BME280;11751;42.700;24.170;2023-04-15T06:38:43;93394.13;;;12.87;nan
23166;BME280;11751;42.700;24.170;2023-04-15T06:41:08;93391.06;;;13.02;nan
23166;BME280;11751;42.700;24.170;2023-04-15T06:43:34;93394.03;;;13.23;nan
23166;BME280;11751;42.700;24.170;2023-04-15T06:45:59;93391.97;;;13.33;nan
23166;BME280;11751;42.700;24.170;2023-04-15T06:48:25;93387.84;;;13.34;nan
23166;BME280;11751;42.700;24.170;2023-04-15T06:50:51;93385.31;;;13.47;nan
23166;BME280;11751;42.700;24.170;2023-04-15T06:53:17;93390.59;;;13.62;nan
23166;BME280;11751;42.700;24.170;2023-04-15T06:55:43;93398.16;;;13.78;nan
23166;BME280;11751;42.700;24.170;2023-04-15T06:58:08;93402.84;;;14.04;nan
23166;BME280;11751;42.700;24.170;2023-04-15T07:00:34;93403.72;;;14.07;nan
23166;BME280;11751;42.700;24.170;2023-04-15T07:02:59;93394.22;;;14.21;nan
23166;BME280;11751;42.700;24.170;2023-04-15T07:05:28;93411.06;;;14.40;nan
23166;BME280;11751;42.700;24.170;2023-04-15T07:07:53;93406.75;;;14.49;nan
23166;BME280;11751;42.700;24.170;2023-04-15T07:10:19;93400.59;;;14.61;nan
23166;BME280;11751;42.700;24.170;2023-04-15T07:12:45;93414.91;;;14.75;nan
23166;BME280;11751;42.700;24.170;2023-04-15T07:15:10;93411.72;;;14.90;nan
23166;BME280;11751;42.700;24.170;2023-04-15T07:17:36;93400.69;;;14.94;nan
23166;BME280;11751;42.700;24.170;2023-04-15T07:20:02;93415.97;;;15.21;nan
23166;BME280;11751;42.700;24.170;2023-04-15T07:22:29;93416.13;;;15.23;nan
23166;BME280;11751;42.700;24.170;2023-04-15T07:24:54;93415.81;;;15.49;nan
23166;BME280;11751;42.700;24.170;2023-04-15T07:27:19;93417.63;;;15.24;nan
23166;BME280;11751;42.700;24.170;2023-04-15T07:29:45;93413.06;;;15.40;nan
23166;BME280;11751;42.700;24.170;2023-04-15T07:32:11;93417.50;;;15.43;nan
23166;BME280;11751;42.700;24.170;2023-04-15T07:34:36;93415.53;;;15.45;nan
23166;BME280;11751;42.700;24.170;2023-04-15T07:37:02;93407.72;;;15.55;nan
23166;BME280;11751;42.700;24.170;2023-04-15T07:39:27;93420.50;;;15.56;nan
23166;BME280;11751;42.700;24.170;2023-04-15T07:41:54;93420.44;;;15.66;nan
23166;BME280;11751;42.700;24.170;2023-04-15T07:44:19;93416.31;;;15.78;nan
23166;BME280;11751;42.700;24.170;2023-04-15T07:46:45;93419.16;;;15.90;nan
23166;BME280;11751;42.700;24.170;2023-04-15T07:49:10;93418.75;;;16.05;nan
23166;BME280;11751;42.700;24.170;2023-04-15T07:51:36;93417.63;;;16.30;nan
23166;BME280;11751;42.700;24.170;2023-04-15T07:54:02;93428.44;;;16.34;nan
23166;BME280;11751;42.700;24.170;2023-04-15T07:56:28;93431.63;;;16.40;nan
23166;BME280;11751;42.700;24.170;2023-04-15T07:58:53;93432.31;;;16.29;nan
23166;BME280;11751;42.700;24.170;2023-04-15T08:01:19;93427.72;;;16.45;nan
23166;BME280;11751;42.700;24.170;2023-04-15T08:03:44;93430.97;;;16.30;nan
23166;BME280;11751;42.700;24.170;2023-04-15T08:06:10;93440.66;;;16.27;nan
23166;BME280;11751;42.700;24.170;2023-04-15T08:08:36;93441.56;;;16.41;nan
23166;BME280;11751;42.700;24.170;2023-04-15T08:11:01;93444.72;;;16.68;nan
23166;BME280;11751;42.700;24.170;2023-04-15T08:13:27;93441.50;;;16.62;nan
23166;BME280;11751;42.700;24.170;2023-04-15T08:16:13;93440.00;;;16.61;nan
23166;BME280;11751;42.700;24.170;2023-04-15T08:18:38;93450.06;;;16.41;nan
23166;BME280;11751;42.700;24.170;2023-04-15T08:21:04;93445.56;;;16.70;nan
23166;BME280;11751;42.700;24.170;2023-04-15T08:23:30;93429.84;;;16.79;nan
23166;BME280;11751;42.700;24.170;2023-04-15T08:25:56;93431.69;;;16.86;nan
23166;BME280;11751;42.700;24.170;2023-04-15T08:28:22;93430.94;;;16.74;nan
23166;BME280;11751;42.700;24.170;2023-04-15T08:30:47;93428.63;;;16.70;nan
23166;BME280;11751;42.700;24.170;2023-04-15T08:33:13;93427.03;;;16.79;nan
23166;BME280;11751;42.700;24.170;2023-04-15T08:35:38;93433.41;;;16.91;nan
23166;BME280;11751;42.700;24.170;2023-04-15T08:38:04;93424.44;;;17.17;nan
23166;BME280;11751;42.700;24.170;2023-04-15T08:40:38;93421.34;;;17.24;nan
23166;BME280;11751;42.700;24.170;2023-04-15T08:43:27;93423.78;;;17.18;nan
23166;BME280;11751;42.700;24.170;2023-04-15T08:45:53;93421.09;;;17.20;nan
23166;BME280;11751;42.700;24.170;2023-04-15T08:48:20;93420.75;;;17.14;nan
23166;BME280;11751;42.700;24.170;2023-04-15T08:50:47;93431.19;;;17.46;nan
23166;BME280;11751;42.700;24.170;2023-04-15T08:53:13;93437.91;;;17.64;nan
23166;BME280;11751;42.700;24.170;2023-04-15T08:55:43;93424.19;;;17.47;nan
23166;BME280;11751;42.700;24.170;2023-04-15T08:58:12;93423.00;;;17.75;nan
23166;BME280;11751;42.700;24.170;2023-04-15T09:00:39;93433.25;;;17.94;nan
23166;BME280;11751;42.700;24.170;2023-04-15T09:03:05;93445.91;;;17.68;nan
23166;BME280;11751;42.700;24.170;2023-04-15T09:05:32;93431.94;;;17.83;nan
23166;BME280;11751;42.700;24.170;2023-04-15T09:07:59;93443.22;;;17.58;nan
23166;BME280;11751;42.700;24.170;2023-04-15T09:10:24;93432.22;;;17.76;nan
23166;BME280;11751;42.700;24.170;2023-04-15T09:12:50;93435.38;;;17.22;nan
23166;BME280;11751;42.700;24.170;2023-04-15T09:15:16;93433.44;;;17.36;nan
23166;BME280;11751;42.700;24.170;2023-04-15T09:17:45;93420.50;;;17.81;nan
23166;BME280;11751;42.700;24.170;2023-04-15T09:20:12;93415.59;;;18.06;nan
23166;BME280;11751;42.700;24.170;2023-04-15T09:22:39;93408.91;;;17.89;nan
23166;BME280;11751;42.700;24.170;2023-04-15T09:25:26;93414.50;;;17.64;nan
23166;BME280;11751;42.700;24.170;2023-04-15T09:28:01;93404.28;;;17.70;nan
23166;BME280;11751;42.700;24.170;2023-04-15T09:30:28;93395.00;;;17.56;nan
23166;BME280;11751;42.700;24.170;2023-04-15T09:32:56;93384.38;;;17.57;nan
23166;BME280;11751;42.700;24.170;2023-04-15T09:35:23;93392.34;;;17.72;nan
23166;BME280;11751;42.700;24.170;2023-04-15T09:37:49;93388.94;;;18.23;nan
23166;BME280;11751;42.700;24.170;2023-04-15T09:40:41;93391.84;;;18.50;nan
23166;BME280;11751;42.700;24.170;2023-04-15T09:43:08;93391.22;;;18.51;nan
23166;BME280;11751;42.700;24.170;2023-04-15T09:45:35;93388.09;;;18.59;nan
23166;BME280;11751;42.700;24.170;2023-04-15T09:48:22;93397.81;;;18.94;nan
23166;BME280;11751;42.700;24.170;2023-04-15T09:50:50;93392.91;;;19.08;nan
23166;BME280;11751;42.700;24.170;2023-04-15T09:53:21;93389.34;;;19.21;nan
23166;BME280;11751;42.700;24.170;2023-04-15T09:58:23;93390.69;;;19.06;nan
23166;BME280;11751;42.700;24.170;2023-04-15T10:00:51;93386.38;;;19.05;nan
23166;BME280;11751;42.700;24.170;2023-04-15T10:03:25;93378.94;;;18.47;nan
23166;BME280;11751;42.700;24.170;2023-04-15T10:05:53;93380.44;;;18.23;nan
23166;BME280;11751;42.700;24.170;2023-04-15T10:08:21;93367.97;;;18.80;nan
23166;BME280;11751;42.700;24.170;2023-04-15T10:10:48;93366.19;;;18.99;nan
23166;BME280;11751;42.700;24.170;2023-04-15T10:13:17;93355.63;;;19.13;nan
23166;BME280;11751;42.700;24.170;2023-04-15T10:15:59;93359.28;;;19.02;nan
23166;BME280;11751;42.700;24.170;2023-04-15T10:18:26;93352.41;;;18.67;nan
23166;BME280;11751;42.700;24.170;2023-04-15T10:20:52;93349.28;;;19.01;nan
23166;BME280;11751;42.700;24.170;2023-04-15T10:23:18;93351.84;;;19.22;nan
23166;BME280;11751;42.700;24.170;2023-04-15T10:25:51;93355.16;;;18.79;nan
23166;BME280;11751;42.700;24.170;2023-04-15T10:28:19;93359.00;;;19.23;nan
23166;BME280;11751;42.700;24.170;2023-04-15T10:30:45;93343.91;;;19.61;nan
23166;BME280;11751;42.700;24.170;2023-04-15T10:33:13;93342.38;;;19.31;nan
23166;BME280;11751;42.700;24.170;2023-04-15T10:35:39;93335.84;;;19.15;nan
23166;BME280;11751;42.700;24.170;2023-04-15T10:38:43;93333.84;;;19.31;nan
23166;BME280;11751;42.700;24.170;2023-04-15T10:43:38;93322.59;;;19.33;nan
23166;BME280;11751;42.700;24.170;2023-04-15T10:46:05;93316.19;;;18.92;nan
23166;BME280;11751;42.700;24.170;2023-04-15T10:48:31;93322.81;;;19.10;nan
23166;BME280;11751;42.700;24.170;2023-04-15T10:50:59;93325.66;;;19.10;nan
23166;BME280;11751;42.700;24.170;2023-04-15T10:53:28;93333.53;;;19.25;nan
23166;BME280;11751;42.700;24.170;2023-04-15T10:55:53;93325.31;;;19.45;nan
23166;BME280;11751;42.700;24.170;2023-04-15T10:58:22;93317.47;;;19.72;nan
23166;BME280;11751;42.700;24.170;2023-04-15T11:00:50;93321.88;;;20.04;nan
23166;BME280;11751;42.700;24.170;2023-04-15T11:03:39;93323.84;;;20.15;nan
23166;BME280;11751;42.700;24.170;2023-04-15T11:06:06;93317.28;;;19.55;nan
23166;BME280;11751;42.700;24.170;2023-04-15T11:09:07;93324.06;;;19.07;nan
23166;BME280;11751;42.700;24.170;2023-04-15T11:12:05;93328.47;;;19.37;nan
23166;BME280;11751;42.700;24.170;2023-04-15T11:14:39;93324.81;;;19.08;nan
23166;BME280;11751;42.700;24.170;2023-04-15T11:17:05;93324.09;;;19.63;nan
23166;BME280;11751;42.700;24.170;2023-04-15T11:19:37;93324.03;;;19.48;nan
23166;BME280;11751;42.700;24.170;2023-04-15T11:22:09;93313.03;;;19.27;nan
23166;BME280;11751;42.700;24.170;2023-04-15T11:24:36;93318.13;;;19.57;nan
23166;BME280;11751;42.700;24.170;2023-04-15T11:27:01;93317.31;;;19.83;nan
23166;BME280;11751;42.700;24.170;2023-04-15T11:29:30;93319.63;;;20.16;nan
23166;BME280;11751;42.700;24.170;2023-04-15T11:32:08;93327.94;;;20.41;nan
23166;BME280;11751;42.700;24.170;2023-04-15T11:34:34;93317.50;;;20.61;nan
23166;BME280;11751;42.700;24.170;2023-04-15T11:37:03;93326.47;;;20.70;nan
23166;BME280;11751;42.700;24.170;2023-04-15T11:39:28;93330.88;;;20.73;nan
23166;BME280;11751;42.700;24.170;2023-04-15T11:41:54;93320.41;;;20.47;nan
23166;BME280;11751;42.700;24.170;2023-04-15T11:44:20;93331.22;;;20.35;nan
23166;BME280;11751;42.700;24.170;2023-04-15T11:46:45;93330.84;;;20.43;nan
23166;BME280;11751;42.700;24.170;2023-04-15T11:49:10;93330.09;;;20.27;nan
23166;BME280;11751;42.700;24.170;2023-04-15T11:51:36;93330.25;;;19.73;nan
23166;BME280;11751;42.700;24.170;2023-04-15T11:54:01;93324.97;;;19.52;nan
23166;BME280;11751;42.700;24.170;2023-04-15T11:56:29;93325.50;;;19.91;nan
23166;BME280;11751;42.700;24.170;2023-04-15T11:58:56;93311.56;;;19.68;nan
23166;BME280;11751;42.700;24.170;2023-04-15T12:03:57;93314.47;;;19.83;nan
23166;BME280;11751;42.700;24.170;2023-04-15T12:06:31;93313.41;;;19.48;nan
23166;BME280;11751;42.700;24.170;2023-04-15T12:11:45;93303.47;;;19.63;nan
23166;BME280;11751;42.700;24.170;2023-04-15T12:16:48;93302.47;;;19.85;nan
23166;BME280;11751;42.700;24.170;2023-04-15T12:19:25;93305.34;;;19.72;nan
23166;BME280;11751;42.700;24.170;2023-04-15T12:21:56;93302.63;;;19.74;nan
23166;BME280;11751;42.700;24.170;2023-04-15T12:24:22;93306.41;;;20.07;nan
23166;BME280;11751;42.700;24.170;2023-04-15T12:26:50;93303.31;;;20.32;nan
23166;BME280;11751;42.700;24.170;2023-04-15T12:29:16;93303.72;;;20.40;nan
23166;BME280;11751;42.700;24.170;2023-04-15T12:31:50;93303.06;;;20.57;nan
23166;BME280;11751;42.700;24.170;2023-04-15T12:34:16;93303.88;;;20.74;nan
23166;BME280;11751;42.700;24.170;2023-04-15T12:36:42;93311.34;;;20.81;nan
23166;BME280;11751;42.700;24.170;2023-04-15T12:39:07;93305.91;;;20.57;nan
23166;BME280;11751;42.700;24.170;2023-04-15T12:41:33;93301.53;;;20.84;nan
23166;BME280;11751;42.700;24.170;2023-04-15T12:43:59;93306.28;;;20.95;nan
23166;BME280;11751;42.700;24.170;2023-04-15T12:46:25;93300.25;;;20.87;nan
23166;BME280;11751;42.700;24.170;2023-04-15T12:48:51;93312.13;;;21.15;nan
23166;BME280;11751;42.700;24.170;2023-04-15T12:51:18;93300.56;;;20.34;nan
23166;BME280;11751;42.700;24.170;2023-04-15T12:53:43;93296.53;;;19.66;nan
23166;BME280;11751;42.700;24.170;2023-04-15T12:56:09;93316.75;;;19.87;nan
23166;BME280;11751;42.700;24.170;2023-04-15T12:58:34;93307.28;;;19.96;nan
23166;BME280;11751;42.700;24.170;2023-04-15T13:01:00;93313.00;;;20.11;nan
23166;BME280;11751;42.700;24.170;2023-04-15T13:03:25;93315.81;;;19.96;nan
23166;BME280;11751;42.700;24.170;2023-04-15T13:05:51;93313.25;;;20.31;nan
23166;BME280;11751;42.700;24.170;2023-04-15T13:08:17;93319.88;;;20.51;nan
23166;BME280;11751;42.700;24.170;2023-04-15T13:10:42;93322.63;;;20.49;nan
23166;BME280;11751;42.700;24.170;2023-04-15T13:13:07;93327.75;;;20.52;nan
23166;BME280;11751;42.700;24.170;2023-04-15T13:15:33;93322.63;;;20.49;nan
23166;BME280;11751;42.700;24.170;2023-04-15T13:17:59;93319.56;;;20.45;nan
23166;BME280;11751;42.700;24.170;2023-04-15T13:20:24;93324.22;;;20.38;nan
23166;BME280;11751;42.700;24.170;2023-04-15T13:22:51;93320.13;;;19.97;nan
23166;BME280;11751;42.700;24.170;2023-04-15T13:25:17;93316.84;;;19.60;nan
23166;BME280;11751;42.700;24.170;2023-04-15T13:27:43;93308.94;;;19.59;nan